logo
Rechercher aéroport 
image banner adimage banner adimage banner ad
image banner ad

YWYT - Wayatinah

Situé à Wayatinah, Australia

ICAO - , IATA -

Données fournies par Airmate  

Information générale

Coordonnées: S42°23'18" E146°30'4"
Élévation : 954 feet MSL.
Variation magnétique : 14° East
Voir autres Aéroports à Tasmania

Données opérationnelles

Special qualification required
Heure actuelle UTC:
Heure actuelle locale:
Météo à : - ( 0 km )
METAR: KSAW 240638Z AUTO 03007KT 10SM CLR 07/02 A2994 RMK AO2
Voir NOTAMs / SUP AIP / TFR affectant cet aéroport [VIEW]
Fréquences de communication: [VIEW]

Pistes:

Coordonnées de l'aéroport

Adresse: Wayatinah Australia

Vue satellite de YWYT